Skip Navigation Links
NOAA logo - Click to go to the NOAA homepage
NOAA's National Weather Service
Alaska Aviation Weather Unit
  NWS logo - Click to go to the NWS homepage
Left Navbar Graphic     23 AKDT = 07 GMT

   
NOAA is celebrating 200 years of science, service, and stewardship. Visit the NOAA 200th celebration Web site to learn more.
USA.gov is the U.S. Government's official Web portal to all Federal, state and local government Web resources and services.
Facebook
NWS on Facebook

Important Change Regarding the AAWU Web Presence

 

Over the last several months, the AAWU has been working to navigate its webpages to a nationally supported server. Security, as well as other needs, have necessitated the change.  In the process, we have made an effort to enhance the functionality of our website, as well as some of our products. As of June 20, 2017, aawu.arh.noaa.gov will be discontinued. The new AAWU web address is weather.gov/aawu. It is now live and will run in-parallel with the old site until it is discontinued. Please send any feedback or questions regarding the new webpages to nws.ar.aawu.webauthors@noaa.gov.  Thank you for your patience during this time of transition.
AAWU Home :: Display TAF Add Bookmark
TAF PACV 240521Z 2406/2506 22006KT P6SM SCT050 BKN200
     FM241500 11005KT 6SM -RA BR SCT015 OVC025
     FM242100 11009KT 4SM -RA BR OVC015=

METAR PACV 240153Z 24011G18KT 10SM FEW035 FEW200 13/04 A3002 RMK AO2 SLP167 T01330039 $= METAR PACV 240253Z 22009KT 10SM FEW055 12/05 A3003 RMK AO2 SLP170 T01170050 51010 $= METAR PACV 240353Z 23010KT 10SM FEW055 FEW250 11/06 A3005 RMK AO2 SLP176 T01110056 $= METAR PACV 240453Z 23008KT 10SM FEW055 FEW250 10/06 A3007 RMK AO2 SLP183 T01000061 $= METAR PACV 240553Z 00000KT 10SM FEW055 SCT250 08/06 A3008 RMK AO2 SLP187 T00830061 10133 20083 51017 $= METAR PACV 240653Z 14003KT 8SM FEW055 SCT100 BKN200 07/06 A3011 RMK AO2 SLP197 T00670056 $=
 Alaska TAF Map

NOAA's National Weather Service
Alaska Aviation Weather Unit
6930 Sand Lake Road
Anchorage, AK 99502-1845
Disclaimer
Credits
Glossary
Privacy Policy
About Us
Career Opportunities
Contact AAWU Internet Services Site last modified: April, 17th 2012